Time;durP1;ratioP1;P1;durP2;ratioP2;P2;SDS_P1;SDS_P2;PMS_P1;PMS_P2;Temp;Humidity;BMP_temperature;BMP_pressure;BME280_temperature;BME280_humidity;BME280_pressure;Samples;Min_cycle;Max_cycle;Signal;HPM_P1;HPM_P2
2021/11/11 00:08:57;;;;;;;113.57;46.07;;;9.10;98.30;;;;;;5077204;23;20493;-81
2021/11/11 00:41:17;;;;;;;113.83;44.77;;;9.10;98.30;;;;;;5189613;22;20447;-84
2021/11/11 00:43:40;;;;;;;224.83;56.90;;;9.10;98.30;;;;;;4651820;22;11498292;-83
2021/11/11 00:46:02;;;;;;;121.00;43.33;;;9.10;98.30;;;;;;5101845;23;20199;-84
2021/11/11 01:06:13;;;;;;;137.70;51.80;;;9.10;98.30;;;;;;5197119;22;20672;-81
2021/11/11 01:22:24;;;;;;;169.73;51.83;;;9.20;98.30;;;;;;5146247;23;20552;-82
2021/11/11 02:47:05;;;;;;;128.90;48.23;;;9.20;98.30;;;;;;4987711;23;20465;-83
2021/11/11 17:08:29;;;;;;;65.57;40.20;;;10.30;98.30;;;;;;5150927;22;21057;-82
2021/11/11 17:10:32;;;;;;;64.80;33.30;;;10.30;98.30;;;;;;5150859;23;20422;-82
2021/11/11 17:12:35;;;;;;;56.07;33.40;;;10.30;98.30;;;;;;5150499;23;20504;-82
2021/11/11 17:14:41;;;;;;;60.17;34.93;;;10.30;98.30;;;;;;5150467;23;20459;-82
2021/11/11 17:16:51;;;;;;;64.10;33.80;;;10.30;98.30;;;;;;5150448;23;20427;-82
2021/11/11 17:18:55;;;;;;;69.83;40.10;;;10.30;98.30;;;;;;5149353;23;20426;-83
2021/11/11 17:20:58;;;;;;;57.07;31.87;;;10.30;98.30;;;;;;5149750;23;20958;-82
2021/11/11 17:23:03;;;;;;;56.33;29.80;;;10.40;98.30;;;;;;5149563;23;20426;-82
2021/11/11 17:25:28;;;;;;;56.37;31.17;;;10.40;98.30;;;;;;5149779;23;20449;-82
2021/11/11 17:27:45;;;;;;;61.10;32.50;;;10.30;98.30;;;;;;5151912;23;21029;-82
2021/11/11 17:29:49;;;;;;;71.37;34.77;;;10.40;98.30;;;;;;5151531;23;20469;-82
2021/11/11 17:31:53;;;;;;;71.30;34.77;;;10.40;98.30;;;;;;5149988;23;20429;-82
2021/11/11 17:33:56;;;;;;;71.60;33.70;;;10.30;98.30;;;;;;5150350;23;20425;-82
2021/11/11 17:36:00;;;;;;;63.70;34.17;;;10.30;98.30;;;;;;5150715;23;20523;-82
2021/11/11 17:38:04;;;;;;;72.10;34.20;;;10.30;98.30;;;;;;5151249;23;20932;-82
2021/11/11 17:40:11;;;;;;;71.07;35.30;;;10.30;98.30;;;;;;5152112;23;20915;-82
2021/11/11 17:42:14;;;;;;;67.47;35.40;;;10.40;98.30;;;;;;5152277;23;20426;-82
2021/11/11 17:44:17;;;;;;;70.83;35.50;;;10.40;98.30;;;;;;5152387;23;20886;-82
2021/11/11 17:46:23;;;;;;;69.00;34.43;;;10.40;98.30;;;;;;5151167;23;20431;-82
2021/11/11 17:48:27;;;;;;;70.07;35.00;;;10.40;98.30;;;;;;5151230;23;20478;-82
2021/11/11 17:50:32;;;;;;;71.73;35.50;;;10.30;98.30;;;;;;5151643;23;20425;-82
2021/11/11 17:52:37;;;;;;;79.13;36.50;;;10.30;98.30;;;;;;5150582;23;20429;-82
2021/11/11 17:54:40;;;;;;;90.90;46.33;;;10.30;98.30;;;;;;5151471;23;20457;-82
2021/11/11 17:56:48;;;;;;;76.87;36.43;;;10.30;98.30;;;;;;5151378;23;20432;-82
2021/11/11 17:58:54;;;;;;;75.70;37.23;;;10.30;98.30;;;;;;5150966;23;20493;-82
2021/11/11 18:00:57;;;;;;;75.07;36.17;;;10.30;98.30;;;;;;5151358;23;20510;-82
2021/11/11 18:03:01;;;;;;;80.17;38.97;;;10.30;98.30;;;;;;5150875;23;20473;-82
2021/11/11 18:05:07;;;;;;;76.90;37.97;;;10.30;98.30;;;;;;5150662;23;20422;-82
2021/11/11 18:07:18;;;;;;;73.73;38.70;;;10.30;98.30;;;;;;5151064;23;20477;-82
2021/11/11 18:09:25;;;;;;;82.40;39.37;;;10.20;98.30;;;;;;5118091;23;20438;-82
2021/11/11 18:11:32;;;;;;;77.53;35.33;;;10.30;98.30;;;;;;5117983;23;21008;-82
2021/11/11 18:13:39;;;;;;;69.70;36.40;;;10.30;98.30;;;;;;5118608;23;20417;-82
2021/11/11 18:15:45;;;;;;;74.00;38.50;;;10.20;98.30;;;;;;5126808;23;20447;-83
2021/11/11 18:17:50;;;;;;;80.23;38.87;;;10.20;98.30;;;;;;5117647;23;20465;-83
2021/11/11 18:19:53;;;;;;;75.10;38.20;;;10.20;98.30;;;;;;5126598;23;20423;-82
2021/11/11 18:21:56;;;;;;;72.33;38.33;;;10.30;98.30;;;;;;5119388;23;20432;-83
2021/11/11 18:23:59;;;;;;;87.50;45.37;;;10.20;98.30;;;;;;5119736;23;20434;-82
2021/11/11 18:26:02;;;;;;;68.20;37.43;;;10.20;98.30;;;;;;5118852;23;20439;-82
2021/11/11 18:28:06;;;;;;;78.10;38.70;;;10.20;98.30;;;;;;5127046;23;20444;-82
2021/11/11 18:30:23;;;;;;;82.83;39.30;;;10.20;98.30;;;;;;5127369;23;20414;-82
2021/11/11 18:32:28;;;;;;;83.93;40.93;;;10.20;98.30;;;;;;5120091;23;20430;-83
2021/11/11 18:34:35;;;;;;;74.10;38.07;;;10.20;98.30;;;;;;5118635;23;20422;-83
2021/11/11 18:36:42;;;;;;;81.40;38.80;;;10.20;98.30;;;;;;5126624;23;20978;-83
2021/11/11 18:38:45;;;;;;;82.10;38.33;;;10.20;98.30;;;;;;5118692;23;20430;-83
2021/11/11 18:40:50;;;;;;;95.13;40.73;;;10.20;98.30;;;;;;5117362;23;20441;-83
2021/11/11 18:42:53;;;;;;;74.80;38.53;;;10.20;98.30;;;;;;5118639;23;20882;-83
2021/11/11 18:44:58;;;;;;;79.20;38.20;;;10.20;98.30;;;;;;5128858;23;20790;-83
2021/11/11 18:47:08;;;;;;;77.30;38.23;;;10.20;98.30;;;;;;5131773;23;20433;-83
2021/11/11 18:49:13;;;;;;;83.53;39.63;;;10.20;98.30;;;;;;5131526;23;20419;-83
2021/11/11 18:51:25;;;;;;;92.07;40.23;;;10.20;98.30;;;;;;5130819;23;20427;-83
2021/11/11 18:53:29;;;;;;;82.97;40.53;;;10.20;98.30;;;;;;5118826;23;20435;-83
2021/11/11 18:55:32;;;;;;;86.33;40.27;;;10.20;98.30;;;;;;5126452;23;20443;-83
2021/11/11 18:57:35;;;;;;;84.43;40.70;;;10.20;98.30;;;;;;5126153;23;20445;-83
2021/11/11 18:59:39;;;;;;;90.43;43.80;;;10.20;98.30;;;;;;5126299;23;20456;-82
2021/11/11 19:01:41;;;;;;;84.53;40.13;;;10.20;98.30;;;;;;5125871;23;20430;-83
2021/11/11 19:03:46;;;;;;;91.13;41.73;;;10.10;98.30;;;;;;5125829;23;20912;-83
2021/11/11 19:05:53;;;;;;;82.67;39.30;;;10.20;98.30;;;;;;5126965;23;20423;-83
2021/11/11 19:08:01;;;;;;;81.40;40.43;;;10.10;98.30;;;;;;5125846;23;20889;-83
2021/11/11 19:10:14;;;;;;;98.23;41.33;;;10.10;98.30;;;;;;5151923;23;20528;-83
2021/11/11 19:12:24;;;;;;;86.90;38.60;;;10.10;98.30;;;;;;5145276;23;20957;-83
2021/11/11 19:14:30;;;;;;;94.80;41.60;;;10.10;98.30;;;;;;5155211;23;20501;-84
2021/11/11 19:16:36;;;;;;;89.80;44.40;;;10.10;98.30;;;;;;5148905;23;20801;-82
2021/11/11 19:18:42;;;;;;;86.77;39.40;;;10.10;98.30;;;;;;5154618;23;20959;-83
2021/11/11 19:20:46;;;;;;;94.13;41.10;;;10.10;98.30;;;;;;5145951;23;20485;-83
2021/11/11 19:22:49;;;;;;;88.13;41.90;;;10.10;98.30;;;;;;5144006;23;20509;-83
2021/11/11 19:24:52;;;;;;;90.30;40.10;;;10.10;98.30;;;;;;5150512;23;20430;-83
2021/11/11 19:26:55;;;;;;;82.37;40.93;;;10.10;98.30;;;;;;5151295;23;20426;-82
2021/11/11 19:29:01;;;;;;;88.47;40.43;;;10.10;98.30;;;;;;5151537;23;20794;-82
2021/11/11 19:31:04;;;;;;;82.03;38.87;;;10.20;98.30;;;;;;5151271;23;20424;-82
2021/11/11 19:33:08;;;;;;;80.00;39.97;;;10.20;98.30;;;;;;5141870;23;20816;-82
2021/11/11 19:35:18;;;;;;;86.97;40.33;;;10.10;98.30;;;;;;5150570;23;20423;-82
2021/11/11 19:39:53;;;;;;;86.80;38.63;;;10.20;98.30;;;;;;5136840;23;20433;-82
2021/11/11 19:42:09;;;;;;;77.10;38.73;;;10.20;98.30;;;;;;5142483;23;20414;-83
2021/11/11 19:44:31;;;;;;;79.03;38.73;;;10.20;98.30;;;;;;5150788;23;20727;-82
2021/11/11 19:46:55;;;;;;;82.73;39.83;;;10.10;98.30;;;;;;5149372;23;20410;-83
2021/11/11 20:01:24;;;;;;;85.20;37.20;;;10.10;98.30;;;;;;5039798;23;20437;-82
2021/11/11 20:03:54;;;;;;;90.00;41.87;;;10.10;98.30;;;;;;5100810;23;20430;-83
2021/11/11 20:08:23;;;;;;;104.67;44.40;;;10.10;98.30;;;;;;5148649;23;20453;-82
2021/11/11 20:10:32;;;;;;;87.37;39.33;;;10.10;98.30;;;;;;5149561;23;20421;-82
2021/11/11 20:15:00;;;;;;;81.73;38.67;;;10.10;98.30;;;;;;5115144;23;20425;-82
2021/11/11 20:17:58;;;;;;;93.83;42.07;;;10.10;98.30;;;;;;5142043;23;20437;-82
2021/11/11 20:35:05;;;;;;;91.57;40.83;;;10.10;98.30;;;;;;5149964;23;20414;-82
2021/11/11 20:37:25;;;;;;;87.43;38.27;;;10.10;98.30;;;;;;5149145;23;20800;-82
2021/11/11 20:41:52;;;;;;;84.30;37.40;;;10.10;98.30;;;;;;5150410;23;20437;-82
2021/11/11 20:44:31;;;;;;;101.87;45.57;;;10.00;98.30;;;;;;5142762;23;20433;-82
2021/11/11 20:47:00;;;;;;;96.70;41.97;;;10.10;98.30;;;;;;5142603;23;20436;-82
2021/11/11 20:58:43;;;;;;;121.67;55.37;;;10.10;98.30;;;;;;5141784;23;20965;-82
2021/11/11 21:00:49;;;;;;;100.33;41.57;;;10.10;98.30;;;;;;5141814;23;20444;-82
2021/11/11 21:02:58;;;;;;;89.77;38.60;;;10.00;98.30;;;;;;5142840;23;20437;-82
2021/11/11 21:05:15;;;;;;;102.90;44.23;;;10.00;98.30;;;;;;5149998;23;20508;-82
2021/11/11 21:07:23;;;;;;;110.07;43.63;;;10.00;98.30;;;;;;5149538;23;20445;-83
2021/11/11 21:12:06;;;;;;;122.47;44.77;;;10.00;98.30;;;;;;5051008;23;20409;-82
2021/11/11 21:14:16;;;;;;;108.10;45.20;;;10.00;98.30;;;;;;5104157;23;21068;-82
2021/11/11 21:16:38;;;;;;;115.07;44.30;;;10.00;98.30;;;;;;5151732;23;20480;-82
2021/11/11 21:18:46;;;;;;;109.40;43.00;;;9.90;98.30;;;;;;5151024;23;20449;-83
2021/11/11 21:20:51;;;;;;;108.00;44.40;;;9.90;98.30;;;;;;5152003;23;20432;-82
2021/11/11 21:22:54;;;;;;;123.57;46.20;;;9.90;98.30;;;;;;5154118;23;20923;-82
2021/11/11 21:24:58;;;;;;;118.90;46.77;;;9.90;98.30;;;;;;5149023;23;20435;-83
2021/11/11 21:27:06;;;;;;;113.00;46.37;;;9.90;98.30;;;;;;5151818;23;20428;-83
2021/11/11 21:29:08;;;;;;;122.73;46.40;;;10.00;98.30;;;;;;5152740;23;20420;-82
2021/11/11 21:31:12;;;;;;;113.57;49.17;;;10.00;98.30;;;;;;5152402;23;20929;-82
2021/11/11 21:33:20;;;;;;;133.23;57.00;;;10.00;98.30;;;;;;5143918;23;20515;-83
2021/11/11 21:35:42;;;;;;;106.27;44.90;;;9.90;98.30;;;;;;5152668;23;20449;-82
2021/11/11 21:37:48;;;;;;;132.43;47.20;;;10.00;98.30;;;;;;5152859;23;20484;-82
2021/11/11 21:40:04;;;;;;;123.00;46.13;;;9.90;98.30;;;;;;5152419;23;20418;-83
2021/11/11 21:42:11;;;;;;;119.37;43.93;;;9.90;98.30;;;;;;5126294;23;20404;-82
2021/11/11 21:44:18;;;;;;;122.20;52.23;;;9.90;98.30;;;;;;5152271;23;20432;-82
2021/11/11 21:46:23;;;;;;;114.20;41.73;;;9.90;98.30;;;;;;5150938;23;20426;-83
2021/11/11 21:48:28;;;;;;;104.97;45.37;;;9.90;98.30;;;;;;5151286;23;20871;-82
2021/11/11 21:50:32;;;;;;;97.17;40.87;;;9.90;98.30;;;;;;5142944;23;20476;-82
2021/11/11 21:52:41;;;;;;;100.60;42.87;;;9.90;98.30;;;;;;5143222;23;20440;-83
2021/11/11 21:54:49;;;;;;;108.53;43.17;;;9.90;98.30;;;;;;5143305;23;20417;-82
2021/11/11 21:56:55;;;;;;;96.17;40.13;;;9.90;98.30;;;;;;5142531;23;20437;-82
2021/11/11 21:59:23;;;;;;;99.17;40.00;;;9.80;98.30;;;;;;5150811;23;20411;-83
2021/11/11 22:01:41;;;;;;;92.77;39.83;;;9.80;98.30;;;;;;5142651;23;20725;-82
2021/11/11 22:04:02;;;;;;;107.63;41.47;;;9.90;98.30;;;;;;5143735;23;20451;-82
2021/11/11 22:06:42;;;;;;;82.33;34.90;;;9.80;98.30;;;;;;5150827;23;20422;-82
2021/11/11 22:20:52;;;;;;;99.20;38.77;;;9.80;98.30;;;;;;5142783;23;20429;-82
2021/11/11 22:23:01;;;;;;;96.53;45.50;;;9.80;98.30;;;;;;5150906;23;20449;-84
2021/11/11 22:25:10;;;;;;;96.33;41.23;;;9.70;98.30;;;;;;5150129;23;20428;-82
2021/11/11 22:27:17;;;;;;;99.77;37.63;;;9.70;98.30;;;;;;5143407;23;20454;-82
2021/11/11 22:29:29;;;;;;;81.87;34.70;;;9.80;98.30;;;;;;5143241;23;20429;-81
2021/11/11 22:33:57;;;;;;;90.77;37.20;;;9.80;98.30;;;;;;5151095;23;20426;-82
2021/11/11 22:36:01;;;;;;;87.13;37.20;;;9.70;98.30;;;;;;5143464;23;20891;-82
2021/11/11 22:38:12;;;;;;;81.53;36.77;;;9.70;98.30;;;;;;5142449;23;20461;-82
2021/11/11 22:40:16;;;;;;;101.33;35.67;;;9.70;98.30;;;;;;5142052;23;20423;-81
2021/11/11 22:42:19;;;;;;;93.20;36.60;;;9.80;98.30;;;;;;5151238;23;20414;-82
2021/11/11 22:44:23;;;;;;;85.40;35.70;;;9.80;98.30;;;;;;5143425;23;20430;-82
2021/11/11 22:46:26;;;;;;;105.77;38.07;;;9.80;98.30;;;;;;5152491;23;20429;-82
2021/11/11 22:48:29;;;;;;;94.43;36.67;;;9.80;98.30;;;;;;5152835;23;20500;-82
2021/11/11 22:50:32;;;;;;;98.83;39.07;;;9.80;98.30;;;;;;5153624;23;20997;-82
2021/11/11 22:52:37;;;;;;;99.47;39.17;;;9.80;98.30;;;;;;5152911;23;20436;-82
2021/11/11 22:54:41;;;;;;;99.77;38.77;;;9.80;98.30;;;;;;5151331;23;20426;-81
2021/11/11 22:56:50;;;;;;;95.53;37.83;;;9.80;98.30;;;;;;5151338;23;20429;-81
2021/11/11 22:59:10;;;;;;;82.87;36.00;;;9.80;98.30;;;;;;5151720;23;20883;-82
2021/11/11 23:01:41;;;;;;;79.20;35.43;;;9.80;98.30;;;;;;5151846;23;20421;-82
2021/11/11 23:03:43;;;;;;;90.40;38.40;;;9.80;98.30;;;;;;5151808;23;20436;-81
2021/11/11 23:06:14;;;;;;;99.20;37.40;;;9.80;98.30;;;;;;5151413;23;20436;-82
